Hay River Airport
CYHY : now visible

Airfield :











YOU CAN JOIN US ON...

 
LOGIN :

Register | Disclaimer

   EN    FR    IT 

 









Legend :    VFR   Marginal VFR   IFR   Intensive IFR   Very Intensive IFR
Visi :
Ceiling :
>= 8 km
>= 3000ft
5 to 8 km
1000 to 3000 ft
1500m to 5 km
500 to 1000 ft
800 to 1500m
200 to 500 ft
< 800m
< 200 ft
Symbols :   Thunderstorms  Fog  Heavy snow  Heavy precipitations  Wind > 20 kt






- Airport Elevation : 543 ft
- IATA code : YHY


CYHY - Hay River

CURRENT METAR :
  • 260931Z VRB02KT 2SM BR BKN003 M09/M10 A2982 RMK ST7 SLP115

EXPIRED METARs :
  • 260900Z 04003KT 340V050 15SM -SN BKN003 BKN005 M09/M10 A2982 RMK ST5SC2 SLP115
  • 260800Z 09005KT 15SM -SN BKN003 BKN005 M09/M10 A2982 RMK ST5SC2 SLP115
  • 260708Z 09008KT 15SM -SN BKN003 BKN005 M09/M10 A2983 RMK ST5SC2 SLP117
  • 260700Z 09007KT 15SM SCT003 BKN005 M09/M10 A2982 RMK SC3ST3 SLP116

TAF TAF CYHY
Valid from the 26 at 06:00 until the 26 at 18:00 UTC


260538Z 2606/2618 VRB03KT P6SM SCT005 BKN010
TEMPO 2606/2615 5SM -SN BKN005 OVC010
PROB30 2609/2615 1SM -FZDZ BR
FM261500 30010KT P6SM SCT006 OVC012
TEMPO 2615/2618 5SM -SN OVC006 RMK NXT FCST BY 261200Z



MET'MAP, your aeronautical weather chart ! - Copyright ORBIFLY December 2007 - Disclaimer

ORBIFLY MET'MAP TEAM :

Programming & Development : Alexandra Zaïnal
Concept & original design : Baudouin d'Aumeries
Assistance for programming : Marc-Olivier Méhu
Technical & hardware support : Manuel Goepfert

Contact : metmap@orbifly.com




SOURCES & CREDITS :

   NOAA       Earth
Advisory